Date,TemperatureHighF,TemperatureAvgF,TemperatureLowF,DewpointHighF,DewpointAvgF,DewpointLowF,HumidityHigh,HumidityAvg,HumidityLow,PressureMaxIn,PressureMinIn,WindSpeedMaxMPH,WindSpeedAvgMPH,GustSpeedMaxMPH,PrecipitationSumIn
2013-2-1,18,15,12,16,10,5,93,81,65,0.00,40.00,16,10,29,9.48
2013-2-2,21,16,11,20,12,4,95,84,70,0.00,40.00,12,7,17,7.74
2013-2-3,20,18,17,19,15,10,96,87,70,0.00,40.00,14,6,21,0.00
2013-2-4,25,20,15,21,16,8,97,83,66,0.00,40.00,12,4,22,2.79
2013-2-5,29,24,20,23,20,17,97,85,62,0.00,40.00,9,3,18,2.20
2013-2-6,34,25,17,27,16,8,97,71,40,0.00,40.00,16,6,21,1.10
2013-2-7,42,30,18,26,18,11,75,60,43,0.00,40.00,14,8,22,0.55
2013-2-8,36,29,20,35,27,18,99,91,72,0.00,40.00,24,15,33,9.52
2013-2-9,33,23,18,20,18,13,95,80,49,0.00,40.00,19,7,27,0.00
2013-2-10,44,32,19,20,16,13,93,55,32,0.00,40.00,21,10,34,0.00
2013-2-11,52,40,33,44,32,22,99,74,43,0.00,40.00,24,15,43,0.00
2013-2-12,33,30,24,25,24,22,95,78,67,0.00,40.00,19,8,29,0.00
2013-2-13,36,29,24,28,25,23,96,86,60,0.00,40.00,11,3,16,0.00
2013-2-14,38,32,24,36,30,23,96,91,69,0.00,40.00,21,10,34,0.00
2013-2-15,37,30,24,28,24,20,89,76,59,0.00,40.00,19,8,33,0.00
2013-2-16,29,23,19,21,16,8,94,75,44,0.00,40.00,9,2,15,1.10
2013-2-17,20,16,9,19,12,4,96,82,61,0.00,40.00,14,7,21,4.40
2013-2-18,39,24,8,26,13,4,87,63,44,0.00,40.00,21,11,29,0.00
2013-2-19,44,32,18,40,28,15,99,86,56,0.00,40.00,24,14,34,0.55
2013-2-20,21,18,15,16,12,7,95,78,58,0.00,40.00,16,10,26,1.10
2013-2-21,22,19,16,18,14,12,92,83,72,0.00,40.00,14,7,20,0.55
2013-2-22,35,27,16,35,25,14,100,91,74,0.00,40.00,17,9,25,0.00
2013-2-23,36,32,28,35,27,22,100,80,61,0.00,40.00,12,6,19,0.00
2013-2-24,31,28,25,27,24,20,92,82,70,0.00,40.00,13,6,21,0.00
2013-2-25,43,31,20,29,22,17,98,73,39,0.00,40.00,7,3,12,0.00
2013-2-26,38,32,28,34,26,21,98,75,59,0.00,40.00,16,8,26,0.00
2013-2-27,41,37,33,40,36,32,99,95,84,0.00,40.00,9,5,17,0.00
2013-2-28,34,32,30,33,31,29,99,95,89,0.00,40.00,15,8,24,0.00